createdAt,value
2018-08-19T00:02:23.243Z,96.13
2018-08-19T00:05:06.017Z,96.74
2018-08-19T00:07:35.191Z,96.50
2018-08-19T00:10:04.202Z,96.83
2018-08-19T00:12:39.530Z,97.04
2018-08-19T00:15:08.143Z,97.08
2018-08-19T00:17:36.631Z,97.56
2018-08-19T00:20:07.863Z,97.75
2018-08-19T00:22:36.368Z,97.74
2018-08-19T00:25:05.630Z,97.95
2018-08-19T00:27:37.203Z,97.74
2018-08-19T00:30:08.273Z,98.90
2018-08-19T00:32:36.772Z,98.76
2018-08-19T00:35:05.883Z,99.21
2018-08-19T00:37:34.720Z,98.85
2018-08-19T00:40:10.301Z,99.08
2018-08-19T00:42:38.899Z,99.20
2018-08-19T00:45:07.955Z,100.00
2018-08-19T00:47:36.637Z,100.00
2018-08-19T00:50:05.579Z,100.00
2018-08-19T00:52:34.892Z,100.00
2018-08-19T00:55:03.724Z,100.00
2018-08-19T00:57:32.865Z,100.00
2018-08-19T01:00:01.640Z,100.00
2018-08-19T01:02:30.571Z,100.00
2018-08-19T01:04:59.076Z,100.00
2018-08-19T01:07:28.092Z,100.00
2018-08-19T01:09:56.796Z,100.00
2018-08-19T01:12:25.630Z,100.00
2018-08-19T01:14:54.240Z,100.00
2018-08-19T01:17:27.378Z,100.00
2018-08-19T01:20:00.003Z,100.00
2018-08-19T01:22:29.041Z,100.00
2018-08-19T01:25:56.796Z,100.00
2018-08-19T01:28:25.416Z,100.00
2018-08-19T01:30:54.328Z,100.00
2018-08-19T01:33:23.047Z,100.00
2018-08-19T01:35:51.761Z,100.00
2018-08-19T01:38:20.621Z,100.00
2018-08-19T01:40:49.324Z,100.00
2018-08-19T01:43:17.992Z,100.00
2018-08-19T01:45:46.508Z,100.00
2018-08-19T01:48:15.347Z,100.00
2018-08-19T01:50:43.864Z,100.00
2018-08-19T01:53:12.488Z,100.00
2018-08-19T01:55:41.122Z,100.00
2018-08-19T01:58:09.908Z,100.00
2018-08-19T02:00:38.648Z,100.00
2018-08-19T02:03:07.480Z,100.00
2018-08-19T02:05:36.583Z,100.00
2018-08-19T02:08:05.903Z,100.00
2018-08-19T02:10:35.101Z,100.00
2018-08-19T02:13:03.763Z,100.00
2018-08-19T02:15:32.995Z,100.00
2018-08-19T02:18:02.896Z,100.00
2018-08-19T02:20:38.603Z,100.00
2018-08-19T02:23:08.883Z,100.00
2018-08-19T02:25:43.844Z,100.00
2018-08-19T02:29:28.040Z,100.00
2018-08-19T02:31:59.518Z,100.00
2018-08-19T02:34:31.705Z,100.00
2018-08-19T02:37:07.323Z,100.00
2018-08-19T02:39:38.098Z,100.00
2018-08-19T02:42:17.474Z,100.00
2018-08-19T02:44:46.305Z,100.00
2018-08-19T02:47:14.832Z,100.00
2018-08-19T02:49:43.673Z,100.00
2018-08-19T02:52:39.338Z,100.00
2018-08-19T02:55:08.643Z,100.00
2018-08-19T02:57:40.045Z,100.00
2018-08-19T03:00:11.048Z,100.00
2018-08-19T03:02:41.064Z,100.00
2018-08-19T03:05:14.656Z,100.00
2018-08-19T03:07:44.555Z,100.00
2018-08-19T03:10:14.737Z,100.00
2018-08-19T03:12:43.970Z,100.00
2018-08-19T03:15:13.639Z,100.00
2018-08-19T03:17:43.044Z,100.00
2018-08-19T03:20:13.576Z,100.00
2018-08-19T03:22:42.432Z,100.00
2018-08-19T03:25:11.533Z,100.00
2018-08-19T03:27:40.144Z,100.00
2018-08-19T03:30:12.207Z,100.00
2018-08-19T03:32:46.568Z,100.00
2018-08-19T03:35:18.493Z,100.00
2018-08-19T03:37:48.042Z,100.00
2018-08-19T03:40:16.620Z,100.00
2018-08-19T03:42:45.702Z,100.00
2018-08-19T03:45:18.654Z,100.00
2018-08-19T03:47:47.944Z,100.00
2018-08-19T03:50:26.906Z,100.00
2018-08-19T03:52:56.731Z,100.00
2018-08-19T03:55:29.355Z,100.00
2018-08-19T03:58:09.080Z,100.00
2018-08-19T04:03:39.800Z,100.00
2018-08-19T04:06:08.325Z,100.00
2018-08-19T04:08:47.341Z,100.00
2018-08-19T04:11:15.945Z,100.00
2018-08-19T04:13:44.412Z,100.00
2018-08-19T04:16:13.334Z,100.00
2018-08-19T04:18:43.928Z,100.00
2018-08-19T04:21:13.789Z,100.00
2018-08-19T04:23:44.844Z,100.00
2018-08-19T04:26:13.417Z,100.00
2018-08-19T04:28:43.515Z,100.00
2018-08-19T04:31:17.166Z,100.00
2018-08-19T04:33:47.196Z,100.00
2018-08-19T04:36:17.377Z,100.00
2018-08-19T04:38:45.967Z,100.00
2018-08-19T04:41:21.328Z,100.00
2018-08-19T04:43:50.378Z,100.00
2018-08-19T04:46:19.097Z,100.00
2018-08-19T04:48:48.571Z,100.00
2018-08-19T04:51:17.088Z,100.00
2018-08-19T04:53:45.884Z,100.00
2018-08-19T04:56:14.488Z,100.00
2018-08-19T04:58:42.975Z,100.00
2018-08-19T05:01:13.525Z,100.00
2018-08-19T05:03:44.325Z,100.00
2018-08-19T05:06:12.930Z,100.00
2018-08-19T05:08:41.479Z,100.00
2018-08-19T05:11:10.031Z,98.53
2018-08-19T05:13:38.672Z,96.71
2018-08-19T05:16:07.400Z,94.32
2018-08-19T05:18:36.014Z,95.47
2018-08-19T05:21:10.092Z,95.99
2018-08-19T05:23:38.912Z,97.01
2018-08-19T05:26:07.472Z,95.50
2018-08-19T05:28:35.999Z,94.82
2018-08-19T05:31:04.829Z,90.59
2018-08-19T05:33:33.709Z,88.84
2018-08-19T05:36:02.628Z,88.07
2018-08-19T05:38:32.401Z,89.27
2018-08-19T05:41:02.024Z,90.40
2018-08-19T05:43:31.379Z,92.28
2018-08-19T05:46:01.058Z,91.44
2018-08-19T05:48:30.136Z,83.83
2018-08-19T05:51:02.161Z,84.05
2018-08-19T05:53:30.697Z,84.09
2018-08-19T05:55:59.471Z,84.94
2018-08-19T05:58:28.142Z,85.93
2018-08-19T06:01:01.289Z,84.65
2018-08-19T06:03:34.598Z,84.65
2018-08-19T06:06:03.476Z,84.20
2018-08-19T06:08:32.488Z,83.28
2018-08-19T06:11:01.314Z,82.33
2018-08-19T06:13:30.148Z,76.44
2018-08-19T06:15:59.041Z,73.55
2018-08-19T06:18:27.652Z,74.80
2018-08-19T06:20:56.944Z,75.97
2018-08-19T06:23:25.645Z,74.80
2018-08-19T06:25:54.219Z,73.34
2018-08-19T06:28:24.365Z,72.45
2018-08-19T06:31:55.723Z,71.98
2018-08-19T06:34:24.756Z,67.88
2018-08-19T06:36:53.350Z,66.85
2018-08-19T06:39:22.375Z,66.46
2018-08-19T06:41:51.234Z,66.43
2018-08-19T06:44:20.056Z,65.75
2018-08-19T06:46:49.128Z,64.54
2018-08-19T06:49:20.312Z,63.79
2018-08-19T06:51:49.813Z,64.36
2018-08-19T06:54:18.463Z,63.17
2018-08-19T06:56:47.363Z,61.74
2018-08-19T06:59:17.419Z,61.28
2018-08-19T07:01:46.516Z,62.16
2018-08-19T07:04:15.950Z,61.74
2018-08-19T07:06:44.902Z,60.88
2018-08-19T07:09:13.440Z,60.72
2018-08-19T07:11:58.046Z,60.12
2018-08-19T07:14:28.310Z,60.48
2018-08-19T07:16:57.257Z,59.61
2018-08-19T07:19:26.136Z,59.49
2018-08-19T07:22:00.144Z,60.00
2018-08-19T07:24:30.670Z,58.50
2018-08-19T07:26:59.488Z,57.69
2018-08-19T07:29:29.696Z,58.27
2018-08-19T07:31:58.659Z,56.67
2018-08-19T07:34:29.025Z,55.88
2018-08-19T07:36:58.984Z,55.16
2018-08-19T07:39:28.787Z,54.75
2018-08-19T07:41:59.816Z,53.90
2018-08-19T07:44:28.483Z,54.54
2018-08-19T07:46:57.387Z,54.53
2018-08-19T07:49:28.571Z,54.28
2018-08-19T07:51:58.392Z,53.11
2018-08-19T07:54:29.018Z,52.50
2018-08-19T07:56:58.428Z,52.32
2018-08-19T07:59:34.900Z,51.65
2018-08-19T08:02:04.469Z,51.48
2018-08-19T08:04:39.444Z,51.90
2018-08-19T08:07:09.529Z,50.64
2018-08-19T08:09:39.112Z,51.77
2018-08-19T08:12:09.785Z,50.91
2018-08-19T08:14:39.633Z,49.51
2018-08-19T08:17:09.988Z,47.78
2018-08-19T08:19:41.738Z,47.66
2018-08-19T08:22:17.353Z,47.98
2018-08-19T08:24:45.885Z,48.08
2018-08-19T08:27:16.164Z,47.94
2018-08-19T08:29:45.706Z,47.88
2018-08-19T08:32:14.672Z,47.52
2018-08-19T08:34:43.869Z,47.36
2018-08-19T08:37:13.445Z,47.48
2018-08-19T08:39:42.672Z,45.60
2018-08-19T08:42:20.127Z,45.06
2018-08-19T08:44:49.168Z,45.48
2018-08-19T08:47:19.113Z,44.76
2018-08-19T08:49:48.248Z,45.46
2018-08-19T08:52:24.377Z,45.11
2018-08-19T08:54:54.571Z,45.13
2018-08-19T08:57:24.513Z,43.81
2018-08-19T08:59:54.161Z,44.43
2018-08-19T09:02:23.289Z,44.26
2018-08-19T09:04:53.871Z,45.76
2018-08-19T09:07:30.904Z,44.28
2018-08-19T09:09:59.529Z,43.68
2018-08-19T09:12:39.527Z,44.57
2018-08-19T09:15:09.529Z,43.74
2018-08-19T09:17:38.841Z,44.04
2018-08-19T09:20:09.591Z,43.38
2018-08-19T09:22:40.521Z,43.65
2018-08-19T09:25:11.393Z,43.62
2018-08-19T09:27:40.868Z,42.89
2018-08-19T09:30:14.127Z,42.04
2018-08-19T09:32:56.880Z,41.89
2018-08-19T09:35:29.541Z,40.78
2018-08-19T09:38:04.844Z,40.89
2018-08-19T09:40:35.501Z,41.06
2018-08-19T09:43:06.572Z,41.92
2018-08-19T09:45:36.380Z,41.60
2018-08-19T09:48:06.692Z,41.19
2018-08-19T09:50:36.732Z,40.71
2018-08-19T09:53:05.641Z,40.77
2018-08-19T09:55:44.135Z,40.49
2018-08-19T09:58:17.180Z,40.06
2018-08-19T10:00:52.775Z,39.23
2018-08-19T10:03:24.197Z,39.77
2018-08-19T10:05:53.222Z,40.05
2018-08-19T10:08:23.824Z,37.86
2018-08-19T10:10:52.888Z,38.47
2018-08-19T10:13:22.302Z,38.43
2018-08-19T10:15:53.072Z,38.38
2018-08-19T10:18:22.693Z,37.40
2018-08-19T10:20:52.705Z,38.04
2018-08-19T10:23:25.549Z,36.47
2018-08-19T10:25:54.795Z,36.68
2018-08-19T10:28:23.431Z,36.57
2018-08-19T10:30:57.025Z,37.81
2018-08-19T10:33:26.269Z,36.77
2018-08-19T10:35:58.033Z,37.15
2018-08-19T10:38:26.812Z,36.81
2018-08-19T10:41:03.597Z,37.28
2018-08-19T10:43:33.393Z,36.62
2018-08-19T10:46:03.052Z,36.31
2018-08-19T10:48:32.440Z,35.17
2018-08-19T10:51:04.083Z,34.64
2018-08-19T10:53:32.588Z,33.06
2018-08-19T10:56:02.812Z,33.10
2018-08-19T10:58:31.977Z,35.17
2018-08-19T11:01:02.572Z,33.90
2018-08-19T11:03:32.335Z,32.23
2018-08-19T11:06:01.419Z,32.41
2018-08-19T11:08:30.483Z,31.66
2018-08-19T11:11:00.372Z,30.11
2018-08-19T11:13:31.707Z,29.91
2018-08-19T11:16:02.366Z,32.68
2018-08-19T11:18:43.952Z,30.60
2018-08-19T11:21:18.907Z,29.73
2018-08-19T11:23:50.021Z,29.78
2018-08-19T11:26:18.681Z,30.08
2018-08-19T11:28:50.663Z,29.89
2018-08-19T11:31:26.326Z,28.47
2018-08-19T11:33:57.495Z,29.67
2018-08-19T11:36:32.461Z,29.58
2018-08-19T11:39:01.196Z,28.07
2018-08-19T11:41:32.417Z,28.66
2018-08-19T11:44:05.567Z,28.76
2018-08-19T11:46:34.159Z,28.80
2018-08-19T11:49:08.449Z,28.27
2018-08-19T11:51:58.841Z,28.44
2018-08-19T11:54:28.732Z,25.85
2018-08-19T11:57:03.798Z,27.01
2018-08-19T11:59:36.383Z,26.16
2018-08-19T12:02:06.762Z,26.79
2018-08-19T12:04:35.572Z,26.96
2018-08-19T12:07:04.612Z,27.26
2018-08-19T12:09:33.381Z,27.58
2018-08-19T12:12:03.033Z,27.05
2018-08-19T12:14:35.138Z,26.81
2018-08-19T12:17:07.700Z,25.88
2018-08-19T12:19:39.013Z,26.65
2018-08-19T12:22:08.323Z,25.57
2018-08-19T12:24:42.977Z,25.04
2018-08-19T12:27:14.105Z,28.77
2018-08-19T12:29:43.556Z,28.09
2018-08-19T12:32:19.844Z,26.59
2018-08-19T12:34:50.745Z,27.39
2018-08-19T12:37:21.365Z,26.89
2018-08-19T12:39:51.382Z,27.77
2018-08-19T12:42:20.047Z,26.83
2018-08-19T12:44:50.666Z,26.38
2018-08-19T12:47:25.315Z,25.18
2018-08-19T12:49:56.728Z,25.45
2018-08-19T12:52:26.904Z,24.62
2018-08-19T12:55:03.556Z,26.13
2018-08-19T12:57:33.183Z,27.11
2018-08-19T13:00:08.809Z,25.30
2018-08-19T13:02:41.915Z,27.73
2018-08-19T13:05:11.085Z,24.54
2018-08-19T13:07:39.711Z,24.15
2018-08-19T13:10:10.552Z,23.72
2018-08-19T13:12:54.816Z,23.81
2018-08-19T13:15:24.618Z,23.60
2018-08-19T13:17:53.483Z,22.18
2018-08-19T13:20:22.101Z,23.54
2018-08-19T13:23:06.533Z,23.34
2018-08-19T13:25:35.287Z,23.38
2018-08-19T13:28:04.454Z,22.38
2018-08-19T13:30:33.255Z,21.77
2018-08-19T13:33:02.572Z,21.39
2018-08-19T13:35:31.609Z,20.74
2018-08-19T13:38:00.205Z,22.30
2018-08-19T13:40:28.879Z,21.42
2018-08-19T13:42:57.549Z,22.16
2018-08-19T13:45:27.653Z,20.56
2018-08-19T13:47:56.582Z,21.14
2018-08-19T13:50:25.442Z,21.96
2018-08-19T13:52:54.150Z,20.34
2018-08-19T13:55:23.400Z,20.33
2018-08-19T13:57:51.930Z,20.81
2018-08-19T14:00:22.384Z,20.33
2018-08-19T14:02:51.523Z,21.32
2018-08-19T14:05:20.819Z,22.38
2018-08-19T14:07:49.353Z,21.50
2018-08-19T14:10:18.201Z,21.43
2018-08-19T14:12:46.712Z,22.28
2018-08-19T14:15:15.595Z,22.11
2018-08-19T14:17:44.293Z,22.27
2018-08-19T14:20:13.131Z,22.90
2018-08-19T14:22:41.849Z,21.77
2018-08-19T14:25:11.758Z,20.24
2018-08-19T14:27:40.564Z,20.25
2018-08-19T14:30:11.013Z,20.87
2018-08-19T14:32:40.641Z,21.57
2018-08-19T14:35:09.601Z,24.79
2018-08-19T14:37:38.469Z,27.55
2018-08-19T14:40:10.659Z,27.70
2018-08-19T14:42:39.303Z,27.75
2018-08-19T14:45:08.184Z,28.76
2018-08-19T14:47:37.344Z,30.42
2018-08-19T14:50:14.854Z,28.88
2018-08-19T14:52:43.807Z,29.31
2018-08-19T14:55:12.575Z,30.85
2018-08-19T14:57:41.106Z,29.25
2018-08-19T15:00:14.071Z,30.13
2018-08-19T15:02:43.943Z,31.21
2018-08-19T15:05:19.148Z,30.97
2018-08-19T15:07:48.209Z,30.86
2018-08-19T15:10:18.141Z,32.07
2018-08-19T15:12:46.689Z,32.79
2018-08-19T15:15:15.257Z,31.77
2018-08-19T15:17:50.977Z,30.86
2018-08-19T15:20:36.741Z,30.40
2018-08-19T15:23:17.471Z,32.95
2018-08-19T15:25:46.499Z,32.06
2018-08-19T15:28:15.963Z,33.42
2018-08-19T15:30:45.192Z,33.98
2018-08-19T15:33:15.907Z,33.22
2018-08-19T15:35:45.338Z,33.67
2018-08-19T15:38:15.242Z,33.27
2018-08-19T15:40:47.997Z,33.83
2018-08-19T15:43:16.523Z,33.41
2018-08-19T15:45:45.694Z,34.32
2018-08-19T15:48:15.666Z,34.99
2018-08-19T15:50:44.376Z,34.19
2018-08-19T15:53:13.770Z,33.52
2018-08-19T15:55:42.595Z,33.79
2018-08-19T15:58:11.935Z,35.63
2018-08-19T16:00:42.397Z,36.17
2018-08-19T16:03:12.482Z,33.74
2018-08-19T16:05:41.788Z,35.29
2018-08-19T16:08:11.533Z,34.29
2018-08-19T16:10:40.698Z,33.97
2018-08-19T16:13:11.512Z,33.81
2018-08-19T16:15:40.322Z,34.40
2018-08-19T16:18:09.377Z,34.09
2018-08-19T16:20:38.689Z,34.81
2018-08-19T16:23:07.501Z,35.46
2018-08-19T16:25:36.552Z,34.52
2018-08-19T16:28:06.604Z,35.76
2018-08-19T16:30:35.569Z,37.92
2018-08-19T16:33:06.166Z,38.96
2018-08-19T16:35:35.082Z,37.80
2018-08-19T16:38:03.624Z,38.41
2018-08-19T16:40:32.390Z,38.00
2018-08-19T16:43:01.557Z,38.80
2018-08-19T16:45:31.942Z,37.67
2018-08-19T16:48:00.412Z,37.50
2018-08-19T16:50:29.766Z,36.44
2018-08-19T16:52:58.819Z,39.09
2018-08-19T16:55:28.228Z,39.73
2018-08-19T16:57:57.046Z,38.45
2018-08-19T17:00:26.747Z,37.67
2018-08-19T17:02:55.804Z,41.13
2018-08-19T17:05:32.510Z,40.36
2018-08-19T17:08:02.625Z,40.69
2018-08-19T17:10:31.492Z,40.99
2018-08-19T17:13:02.479Z,41.18
2018-08-19T17:15:31.302Z,41.35
2018-08-19T17:18:00.517Z,42.41
2018-08-19T17:20:29.146Z,41.57
2018-08-19T17:22:58.031Z,42.42
2018-08-19T17:25:26.787Z,42.38
2018-08-19T17:27:55.281Z,43.65
2018-08-19T17:30:24.707Z,43.37
2018-08-19T17:33:00.758Z,42.80
2018-08-19T17:35:29.929Z,44.21
2018-08-19T17:37:58.851Z,44.62
2018-08-19T17:40:27.992Z,44.84
2018-08-19T17:42:57.247Z,45.57
2018-08-19T17:45:26.006Z,46.38
2018-08-19T17:47:55.383Z,46.35
2018-08-19T17:50:30.093Z,47.03
2018-08-19T17:53:01.279Z,46.97
2018-08-19T17:55:30.467Z,48.57
2018-08-19T17:58:00.852Z,51.08
2018-08-19T18:00:29.804Z,50.44
2018-08-19T18:02:58.714Z,50.34
2018-08-19T18:05:30.435Z,51.17
2018-08-19T18:08:00.576Z,52.23
2018-08-19T18:10:29.592Z,52.92
2018-08-19T18:12:58.821Z,53.89
2018-08-19T18:15:28.883Z,53.81
2018-08-19T18:18:03.307Z,54.17
2018-08-19T18:20:34.704Z,54.99
2018-08-19T18:23:04.784Z,53.51
2018-08-19T18:25:33.428Z,54.53
2018-08-19T18:28:10.920Z,56.29
2018-08-19T18:30:41.144Z,56.72
2018-08-19T18:33:10.299Z,55.83
2018-08-19T18:35:39.761Z,55.38
2018-08-19T18:38:19.882Z,56.69
2018-08-19T18:40:50.283Z,57.57
2018-08-19T18:43:20.828Z,56.33
2018-08-19T18:45:51.029Z,57.07
2018-08-19T18:48:20.858Z,57.87
2018-08-19T18:50:53.280Z,58.64
2018-08-19T18:53:22.318Z,58.59
2018-08-19T18:55:51.221Z,59.33
2018-08-19T18:58:20.781Z,60.21
2018-08-19T19:01:05.180Z,58.47
2018-08-19T19:03:34.436Z,58.53
2018-08-19T19:06:03.500Z,59.79
2018-08-19T19:08:33.633Z,58.29
2018-08-19T19:11:06.083Z,59.10
2018-08-19T19:13:35.829Z,60.59
2018-08-19T19:16:05.290Z,61.07
2018-08-19T19:18:34.496Z,60.98
2018-08-19T19:21:04.246Z,61.10
2018-08-19T19:23:41.167Z,61.38
2018-08-19T19:26:10.805Z,62.37
2018-08-19T19:28:39.567Z,62.64
2018-08-19T19:31:12.421Z,62.43
2018-08-19T19:33:41.082Z,62.67
2018-08-19T19:36:15.606Z,62.65
2018-08-19T19:38:48.937Z,63.96
2018-08-19T19:41:22.364Z,64.19
2018-08-19T19:43:51.527Z,64.10
2018-08-19T19:46:22.101Z,64.03
2018-08-19T19:48:52.001Z,65.31
2018-08-19T19:51:21.307Z,66.37
2018-08-19T19:53:50.571Z,67.36
2018-08-19T19:56:20.203Z,66.95
2018-08-19T19:58:50.378Z,66.67
